createdAt,value
2018-04-01T00:02:02.246Z,3.80
2018-04-01T00:04:29.806Z,3.80
2018-04-01T00:06:57.370Z,3.80
2018-04-01T00:09:24.705Z,3.90
2018-04-01T00:11:52.263Z,3.90
2018-04-01T00:14:19.823Z,3.90
2018-04-01T00:16:47.408Z,3.80
2018-04-01T00:19:14.979Z,3.70
2018-04-01T00:21:42.549Z,3.70
2018-04-01T00:24:10.106Z,3.70
2018-04-01T00:26:37.677Z,3.70
2018-04-01T00:29:05.229Z,3.60
2018-04-01T00:31:32.805Z,3.50
2018-04-01T00:34:00.372Z,3.60
2018-04-01T00:36:27.937Z,3.60
2018-04-01T00:38:55.487Z,3.70
2018-04-01T00:41:23.061Z,3.70
2018-04-01T00:43:50.620Z,3.60
2018-04-01T00:46:18.949Z,3.60
2018-04-01T00:48:46.505Z,3.60
2018-04-01T00:51:14.071Z,3.60
2018-04-01T00:53:41.640Z,3.50
2018-04-01T00:56:09.202Z,3.60
2018-04-01T00:58:36.748Z,3.60
2018-04-01T01:01:04.310Z,3.60
2018-04-01T01:03:32.462Z,3.70
2018-04-01T01:06:00.048Z,3.70
2018-04-01T01:08:27.597Z,3.80
2018-04-01T01:10:55.154Z,3.70
2018-04-01T01:13:22.710Z,3.90
2018-04-01T01:15:50.258Z,3.80
2018-04-01T01:18:17.846Z,3.70
2018-04-01T01:20:45.578Z,3.80
2018-04-01T01:23:13.898Z,3.60
2018-04-01T01:25:41.476Z,3.60
2018-04-01T01:28:09.044Z,3.70
2018-04-01T01:30:36.605Z,3.70
2018-04-01T01:33:04.166Z,3.80
2018-04-01T01:35:31.727Z,4.00
2018-04-01T01:37:59.301Z,3.90
2018-04-01T01:40:26.860Z,3.80
2018-04-01T01:42:54.422Z,3.80
2018-04-01T01:45:21.999Z,3.60
2018-04-01T01:47:50.322Z,3.80
2018-04-01T01:50:17.878Z,3.80
2018-04-01T01:52:45.450Z,3.80
2018-04-01T01:55:12.774Z,3.90
2018-04-01T01:57:40.110Z,3.80
2018-04-01T02:00:08.467Z,3.90
2018-04-01T02:02:36.018Z,3.90
2018-04-01T02:05:03.578Z,3.70
2018-04-01T02:07:31.816Z,3.80
2018-04-01T02:09:59.170Z,3.70
2018-04-01T02:12:27.670Z,3.70
2018-04-01T02:14:55.231Z,3.70
2018-04-01T02:17:22.560Z,3.60
2018-04-01T02:19:50.226Z,3.60
2018-04-01T02:22:17.803Z,3.50
2018-04-01T02:24:45.359Z,3.60
2018-04-01T02:27:12.927Z,3.50
2018-04-01T02:29:40.258Z,3.50
2018-04-01T02:32:07.574Z,3.60
2018-04-01T02:34:35.131Z,3.60
2018-04-01T02:37:02.703Z,3.60
2018-04-01T02:39:30.588Z,3.50
2018-04-01T02:41:58.931Z,3.50
2018-04-01T02:44:26.511Z,3.40
2018-04-01T02:46:54.087Z,3.50
2018-04-01T02:49:21.675Z,3.40
2018-04-01T02:51:49.228Z,3.30
2018-04-01T02:54:16.794Z,3.50
2018-04-01T02:56:44.339Z,3.30
2018-04-01T02:59:11.909Z,3.30
2018-04-01T03:01:39.496Z,3.30
2018-04-01T03:04:07.063Z,3.40
2018-04-01T03:06:34.640Z,3.30
2018-04-01T03:09:02.205Z,3.10
2018-04-01T03:11:29.771Z,3.30
2018-04-01T03:13:57.323Z,3.30
2018-04-01T03:16:24.958Z,3.20
2018-04-01T03:18:52.604Z,3.20
2018-04-01T03:21:20.248Z,3.00
2018-04-01T03:23:47.907Z,2.90
2018-04-01T03:26:15.561Z,3.00
2018-04-01T03:28:43.206Z,3.00
2018-04-01T03:31:11.629Z,3.00
2018-04-01T03:33:39.290Z,3.00
2018-04-01T03:36:06.935Z,3.10
2018-04-01T03:38:35.350Z,3.00
2018-04-01T03:41:03.008Z,3.00
2018-04-01T03:43:30.666Z,3.00
2018-04-01T03:45:58.319Z,3.00
2018-04-01T03:48:26.728Z,3.10
2018-04-01T03:50:54.383Z,3.10
2018-04-01T03:53:22.047Z,3.10
2018-04-01T03:55:49.683Z,2.90
2018-04-01T03:58:17.328Z,3.10
2018-04-01T04:00:45.735Z,3.10
2018-04-01T04:03:13.143Z,3.10
2018-04-01T04:05:40.560Z,3.10
2018-04-01T04:08:07.975Z,3.10
2018-04-01T04:10:36.154Z,3.00
2018-04-01T04:13:04.565Z,3.00
2018-04-01T04:15:32.207Z,2.90
2018-04-01T04:17:59.854Z,3.10
2018-04-01T04:20:28.255Z,3.20
2018-04-01T04:22:55.911Z,3.20
2018-04-01T04:25:23.561Z,3.00
2018-04-01T04:27:51.964Z,3.20
2018-04-01T04:30:19.374Z,3.20
2018-04-01T04:32:47.011Z,3.20
2018-04-01T04:35:14.656Z,3.10
2018-04-01T04:37:42.302Z,3.10
2018-04-01T04:40:09.953Z,3.00
2018-04-01T04:42:38.374Z,3.10
2018-04-01T04:45:06.018Z,3.10
2018-04-01T04:47:33.662Z,3.00
2018-04-01T04:50:01.344Z,3.20
2018-04-01T04:52:28.998Z,3.10
2018-04-01T04:54:56.662Z,3.00
2018-04-01T04:57:24.084Z,3.20
2018-04-01T04:59:51.736Z,3.10
2018-04-01T05:02:19.377Z,3.10
2018-04-01T05:04:47.034Z,3.10
2018-04-01T05:07:14.669Z,3.00
2018-04-01T05:09:42.327Z,3.00
2018-04-01T05:12:09.975Z,3.10
2018-04-01T05:14:39.091Z,3.10
2018-04-01T05:17:06.778Z,3.00
2018-04-01T05:19:35.122Z,3.20
2018-04-01T05:22:03.306Z,3.00
2018-04-01T05:24:31.003Z,3.00
2018-04-01T05:26:58.658Z,2.90
2018-04-01T05:29:26.305Z,2.90
2018-04-01T05:31:53.959Z,2.90
2018-04-01T05:34:21.605Z,2.90
2018-04-01T05:36:49.262Z,2.80
2018-04-01T05:39:17.672Z,3.00
2018-04-01T05:41:45.311Z,3.00
2018-04-01T05:44:13.533Z,3.00
2018-04-01T05:46:41.358Z,3.00
2018-04-01T05:49:09.003Z,3.00
2018-04-01T05:51:36.685Z,2.90
2018-04-01T05:54:04.503Z,2.80
2018-04-01T05:56:32.147Z,2.80
2018-04-01T05:58:59.804Z,2.90
2018-04-01T06:01:27.229Z,3.00
2018-04-01T06:03:55.652Z,2.90
2018-04-01T06:06:23.384Z,2.90
2018-04-01T06:08:51.045Z,2.90
2018-04-01T06:11:18.463Z,2.90
2018-04-01T06:13:46.123Z,2.90
2018-04-01T06:16:13.787Z,2.90
2018-04-01T06:18:41.442Z,2.80
2018-04-01T06:21:09.096Z,3.00
2018-04-01T06:23:36.750Z,3.10
2018-04-01T06:26:04.408Z,3.00
2018-04-01T06:28:32.068Z,3.10
2018-04-01T06:30:59.731Z,3.10
2018-04-01T06:33:27.378Z,3.10
2018-04-01T06:35:55.035Z,3.10
2018-04-01T06:38:22.689Z,3.00
2018-04-01T06:40:51.118Z,3.10
2018-04-01T06:43:18.780Z,3.00
2018-04-01T06:45:46.448Z,3.10
2018-04-01T06:48:14.118Z,3.10
2018-04-01T06:50:41.819Z,3.10
2018-04-01T06:53:09.635Z,3.00
2018-04-01T06:55:37.291Z,3.20
2018-04-01T06:58:04.952Z,3.20
2018-04-01T07:00:32.613Z,3.20
2018-04-01T07:03:00.279Z,3.30
2018-04-01T07:05:27.940Z,3.10
2018-04-01T07:07:55.588Z,3.20
2018-04-01T07:10:23.233Z,3.20
2018-04-01T07:12:50.888Z,3.20
2018-04-01T07:15:20.115Z,3.30
2018-04-01T07:17:47.767Z,3.30
2018-04-01T07:20:15.429Z,3.30
2018-04-01T07:22:43.112Z,3.40
2018-04-01T07:25:10.771Z,3.40
2018-04-01T07:27:38.423Z,3.40
2018-04-01T07:30:06.062Z,3.50
2018-04-01T07:32:34.477Z,3.30
2018-04-01T07:35:02.148Z,3.20
2018-04-01T07:37:29.804Z,3.30
2018-04-01T07:39:57.470Z,3.40
2018-04-01T07:42:25.137Z,3.60
2018-04-01T07:44:52.981Z,3.40
2018-04-01T07:47:20.640Z,3.40
2018-04-01T07:49:48.311Z,3.40
2018-04-01T07:52:15.968Z,3.50
2018-04-01T07:54:43.642Z,3.40
2018-04-01T07:57:11.299Z,3.50
2018-04-01T07:59:38.960Z,3.50
2018-04-01T08:02:06.630Z,3.30
2018-04-01T08:04:34.288Z,3.30
2018-04-01T08:07:01.943Z,3.60
2018-04-01T08:09:29.597Z,3.50
2018-04-01T08:11:58.018Z,3.30
2018-04-01T08:14:25.672Z,3.30
2018-04-01T08:16:54.197Z,3.40
2018-04-01T08:19:21.869Z,3.50
2018-04-01T08:21:50.295Z,3.40
2018-04-01T08:24:17.954Z,3.40
2018-04-01T08:26:46.721Z,3.40
2018-04-01T08:29:14.387Z,3.40
2018-04-01T08:31:42.045Z,3.40
2018-04-01T08:34:10.473Z,3.50
2018-04-01T08:36:38.116Z,3.50
2018-04-01T08:39:05.776Z,3.70
2018-04-01T08:41:33.428Z,3.60
2018-04-01T08:44:01.092Z,3.50
2018-04-01T08:46:28.747Z,3.60
2018-04-01T08:48:56.399Z,3.60
2018-04-01T08:51:24.812Z,3.50
2018-04-01T08:53:53.661Z,3.50
2018-04-01T08:56:22.075Z,3.70
2018-04-01T08:58:49.732Z,3.70
2018-04-01T09:01:18.264Z,3.70
2018-04-01T09:03:45.937Z,3.60
2018-04-01T09:06:14.667Z,3.50
2018-04-01T09:08:42.084Z,3.50
2018-04-01T09:11:09.507Z,3.60
2018-04-01T09:13:37.171Z,3.50
2018-04-01T09:16:04.790Z,3.50
2018-04-01T09:18:33.203Z,3.50
2018-04-01T09:21:00.874Z,3.50
2018-04-01T09:23:28.540Z,3.60
2018-04-01T09:25:56.194Z,3.50
2018-04-01T09:28:23.853Z,3.50
2018-04-01T09:30:51.502Z,3.50
2018-04-01T09:33:19.224Z,3.50
2018-04-01T09:35:46.874Z,3.60
2018-04-01T09:38:14.991Z,3.50
2018-04-01T09:40:42.669Z,3.50
2018-04-01T09:43:10.346Z,3.50
2018-04-01T09:45:37.995Z,3.40
2018-04-01T09:48:05.644Z,3.50
2018-04-01T09:50:34.077Z,3.40
2018-04-01T09:53:01.743Z,3.40
2018-04-01T09:55:29.412Z,3.50
2018-04-01T09:57:57.060Z,3.50
2018-04-01T10:00:26.148Z,3.50
2018-04-01T10:02:54.965Z,3.50
2018-04-01T10:05:23.441Z,3.50
2018-04-01T10:07:59.658Z,3.50
2018-04-01T10:10:28.470Z,3.50
2018-04-01T10:12:57.283Z,3.60
2018-04-01T10:15:26.079Z,3.50
2018-04-01T10:17:55.454Z,3.60
2018-04-01T10:20:24.261Z,3.60
2018-04-01T10:22:53.918Z,3.60
2018-04-01T10:25:22.720Z,3.60
2018-04-01T10:27:52.107Z,3.60
2018-04-01T10:30:20.924Z,3.60
2018-04-01T10:32:49.715Z,3.70
2018-04-01T10:35:18.517Z,3.70
2018-04-01T10:37:48.149Z,3.70
2018-04-01T10:40:16.939Z,3.80
2018-04-01T10:42:45.863Z,3.80
2018-04-01T10:45:15.651Z,3.80
2018-04-01T10:47:46.010Z,3.80
2018-04-01T10:50:14.820Z,3.70
2018-04-01T10:52:43.860Z,3.80
2018-04-01T10:55:11.525Z,3.80
2018-04-01T10:57:39.208Z,3.90
2018-04-01T11:00:07.633Z,3.90
2018-04-01T11:02:35.293Z,3.90
2018-04-01T11:05:02.940Z,3.90
2018-04-01T11:07:31.804Z,3.90
2018-04-01T11:10:00.775Z,3.80
2018-04-01T11:12:28.427Z,3.80
2018-04-01T11:14:56.078Z,3.90
2018-04-01T11:17:23.744Z,3.80
2018-04-01T11:19:51.389Z,3.80
2018-04-01T11:22:18.843Z,3.90
2018-04-01T11:24:46.256Z,4.00
2018-04-01T11:27:13.909Z,3.90
2018-04-01T11:29:41.568Z,4.10
2018-04-01T11:32:09.225Z,4.10
2018-04-01T11:34:36.877Z,4.00
2018-04-01T11:37:05.052Z,4.00
2018-04-01T11:39:32.797Z,4.00
2018-04-01T11:42:00.449Z,4.00
2018-04-01T11:44:28.101Z,4.00
2018-04-01T11:46:55.860Z,4.00
2018-04-01T11:49:23.522Z,4.10
2018-04-01T11:51:51.167Z,4.20
2018-04-01T11:54:19.597Z,4.20
2018-04-01T11:56:47.300Z,4.20
2018-04-01T11:59:15.113Z,4.20
2018-04-01T12:01:42.780Z,4.20
2018-04-01T12:04:10.429Z,4.40
2018-04-01T12:06:38.084Z,4.40
2018-04-01T12:09:05.741Z,4.40
2018-04-01T12:11:33.934Z,4.30
2018-04-01T12:14:01.606Z,4.30
2018-04-01T12:16:29.262Z,4.40
2018-04-01T12:18:56.916Z,4.40
2018-04-01T12:21:24.588Z,4.50
2018-04-01T12:23:52.271Z,4.50
2018-04-01T12:26:19.935Z,4.50
2018-04-01T12:28:47.634Z,4.50
2018-04-01T12:31:15.294Z,4.50
2018-04-01T12:33:42.954Z,4.50
2018-04-01T12:36:10.400Z,4.60
2018-04-01T12:38:38.054Z,4.60
2018-04-01T12:41:06.168Z,4.60
2018-04-01T12:43:34.583Z,4.80
2018-04-01T12:46:02.233Z,4.80
2018-04-01T12:48:29.887Z,4.80
2018-04-01T12:50:58.848Z,4.90
2018-04-01T12:53:26.703Z,4.90
2018-04-01T12:55:54.466Z,5.10
2018-04-01T12:58:22.903Z,4.90
2018-04-01T13:00:50.565Z,4.90
2018-04-01T13:03:19.000Z,5.10
2018-04-01T13:05:46.659Z,5.10
2018-04-01T13:08:14.307Z,5.10
2018-04-01T13:10:42.688Z,5.10
2018-04-01T13:13:10.373Z,5.20
2018-04-01T13:15:38.098Z,5.10
2018-04-01T13:18:05.783Z,5.20
2018-04-01T13:20:33.443Z,5.10
2018-04-01T13:23:01.137Z,5.20
2018-04-01T13:25:32.076Z,5.10
2018-04-01T13:27:59.891Z,5.10
2018-04-01T13:30:28.143Z,5.30
2018-04-01T13:32:55.809Z,5.10
2018-04-01T13:35:23.472Z,5.10
2018-04-01T13:37:51.148Z,5.10
2018-04-01T13:40:18.902Z,5.20
2018-04-01T13:42:46.556Z,5.40
2018-04-01T13:45:14.981Z,5.30
2018-04-01T13:47:42.831Z,5.30
2018-04-01T13:50:10.690Z,5.30
2018-04-01T13:52:38.365Z,5.30
2018-04-01T13:55:05.785Z,5.30
2018-04-01T13:57:33.979Z,5.20
2018-04-01T14:00:01.637Z,5.20
2018-04-01T14:02:29.288Z,5.20
2018-04-01T14:04:57.739Z,5.30
2018-04-01T14:07:25.422Z,5.20
2018-04-01T14:09:53.079Z,5.40
2018-04-01T14:12:20.740Z,5.40
2018-04-01T14:14:48.423Z,5.20
2018-04-01T14:17:16.836Z,5.20
2018-04-01T14:19:45.342Z,5.20
2018-04-01T14:22:13.000Z,5.20
2018-04-01T14:24:40.678Z,5.20
2018-04-01T14:27:09.143Z,5.30
2018-04-01T14:29:36.808Z,5.40
2018-04-01T14:32:05.302Z,5.30
2018-04-01T14:34:33.015Z,5.40
2018-04-01T14:37:01.543Z,5.40
2018-04-01T14:39:40.737Z,5.40
2018-04-01T14:42:15.758Z,5.40
2018-04-01T15:07:41.352Z,5.40
2018-04-01T15:10:09.032Z,5.20
2018-04-01T15:12:37.397Z,5.20
2018-04-01T15:15:08.370Z,5.10
2018-04-01T15:17:36.655Z,5.10
2018-04-01T15:20:05.594Z,5.20
2018-04-01T15:22:33.323Z,5.20
2018-04-01T15:25:01.026Z,5.30
2018-04-01T15:27:29.282Z,5.30
2018-04-01T15:29:57.757Z,5.20
2018-04-01T15:32:26.896Z,5.40
2018-04-01T15:34:54.821Z,5.40
2018-04-01T15:37:23.306Z,5.20
2018-04-01T15:39:51.828Z,5.20
2018-04-01T15:42:20.163Z,5.20
2018-04-01T15:44:48.753Z,5.20
2018-04-01T15:47:17.274Z,5.40
2018-04-01T15:49:44.984Z,5.40
2018-04-01T15:52:12.688Z,5.30
2018-04-01T15:54:43.368Z,5.30
2018-04-01T15:57:12.427Z,5.30
2018-04-01T15:59:40.086Z,5.30
2018-04-01T16:02:08.061Z,5.40
2018-04-01T16:04:36.463Z,5.30
2018-04-01T16:07:04.107Z,5.30
2018-04-01T16:09:31.761Z,5.30
2018-04-01T16:12:00.193Z,5.20
2018-04-01T16:14:28.591Z,5.40
2018-04-01T16:16:56.222Z,5.40
2018-04-01T16:19:23.877Z,5.40
2018-04-01T16:21:51.610Z,5.40
2018-04-01T16:24:19.269Z,5.40
2018-04-01T16:26:47.706Z,5.20
2018-04-01T16:29:15.386Z,5.20
2018-04-01T16:31:43.037Z,5.30
2018-04-01T16:34:10.715Z,5.30
2018-04-01T16:36:38.410Z,5.20
2018-04-01T16:39:06.716Z,5.30
2018-04-01T16:41:34.367Z,5.30
2018-04-01T16:44:02.634Z,5.20
2018-04-01T16:46:30.313Z,5.30
2018-04-01T16:48:57.978Z,5.40
2018-04-01T16:51:25.649Z,5.30
2018-04-01T16:53:53.291Z,5.10
2018-04-01T16:56:20.932Z,5.30
2018-04-01T16:58:48.603Z,5.40
2018-04-01T17:01:16.259Z,5.30
2018-04-01T17:03:43.965Z,5.20
2018-04-01T17:06:11.856Z,5.20
2018-04-01T17:08:39.500Z,5.20
2018-04-01T17:11:07.155Z,5.40
2018-04-01T17:13:34.891Z,5.30
2018-04-01T17:16:02.551Z,5.30
2018-04-01T17:18:30.727Z,5.30
2018-04-01T17:20:58.402Z,5.30
2018-04-01T17:23:26.058Z,5.30
2018-04-01T17:25:53.698Z,5.20
2018-04-01T17:28:21.358Z,5.30
2018-04-01T17:30:49.784Z,5.10
2018-04-01T17:33:17.448Z,5.10
2018-04-01T17:35:45.105Z,5.10
2018-04-01T17:38:13.488Z,5.30
2018-04-01T17:40:41.135Z,5.20
2018-04-01T17:43:08.787Z,5.10
2018-04-01T17:45:36.438Z,5.20
2018-04-01T17:48:05.078Z,5.10
2018-04-01T17:50:32.735Z,5.10
2018-04-01T17:53:00.399Z,5.10
2018-04-01T17:55:28.062Z,5.00
2018-04-01T17:57:56.555Z,5.00
2018-04-01T18:00:24.211Z,5.10
2018-04-01T18:02:51.865Z,5.00
2018-04-01T18:05:19.600Z,4.90
2018-04-01T18:07:47.257Z,4.90
2018-04-01T18:10:14.907Z,5.00
2018-04-01T18:12:43.086Z,4.80
2018-04-01T18:15:11.271Z,4.90
2018-04-01T18:17:38.921Z,4.90
2018-04-01T18:20:07.348Z,4.70
2018-04-01T18:22:35.008Z,4.70
2018-04-01T18:25:02.684Z,4.80
2018-04-01T18:27:31.220Z,4.70
2018-04-01T18:29:59.642Z,4.70
2018-04-01T18:32:27.075Z,4.70
2018-04-01T18:34:55.082Z,4.60
2018-04-01T18:37:22.737Z,4.50
2018-04-01T18:39:50.386Z,4.60
2018-04-01T18:42:18.046Z,4.60
2018-04-01T18:44:46.333Z,4.60
2018-04-01T18:47:13.983Z,4.60
2018-04-01T18:49:41.656Z,4.50
2018-04-01T18:52:09.324Z,4.50
2018-04-01T18:54:36.980Z,4.40
2018-04-01T18:57:04.641Z,4.50
2018-04-01T18:59:32.349Z,4.50
2018-04-01T19:02:00.007Z,4.50
2018-04-01T19:04:27.661Z,4.50
2018-04-01T19:06:57.444Z,4.50
2018-04-01T19:09:25.085Z,4.50
2018-04-01T19:11:52.736Z,4.50
2018-04-01T19:14:21.152Z,4.40
2018-04-01T19:17:04.786Z,4.40
2018-04-01T19:19:33.597Z,4.40
2018-04-01T19:22:02.188Z,4.40
2018-04-01T19:24:30.674Z,4.40
2018-04-01T19:27:00.695Z,4.60
2018-04-01T19:29:30.109Z,4.50
2018-04-01T19:31:58.924Z,4.40
2018-04-01T19:34:27.798Z,4.30
2018-04-01T19:36:57.393Z,4.30
2018-04-01T19:39:27.913Z,4.50
2018-04-01T19:41:56.716Z,4.50
2018-04-01T19:44:25.538Z,4.30
2018-04-01T19:46:54.355Z,4.20
2018-04-01T19:49:23.024Z,4.30
2018-04-01T19:51:51.598Z,4.20
2018-04-01T19:54:20.398Z,4.20
2018-04-01T19:56:49.199Z,4.30
2018-04-01T19:59:18.004Z,4.20
2018-04-01T20:01:46.871Z,4.30
2018-04-01T20:04:15.755Z,4.30
2018-04-01T20:06:44.608Z,4.30
2018-04-01T20:09:13.338Z,4.40
2018-04-01T20:11:42.148Z,4.40
2018-04-01T20:14:10.953Z,4.40
2018-04-01T20:16:39.784Z,4.50
2018-04-01T20:19:09.357Z,4.40
2018-04-01T20:21:38.156Z,4.50
2018-04-01T20:24:06.997Z,4.30
2018-04-01T20:26:35.805Z,4.50
2018-04-01T20:29:04.623Z,4.50
2018-04-01T20:31:33.443Z,4.60
2018-04-01T20:34:03.019Z,4.50
2018-04-01T20:36:33.724Z,4.50
2018-04-01T20:39:02.562Z,4.50
2018-04-01T20:41:32.197Z,4.70
2018-04-01T20:44:02.405Z,4.60
2018-04-01T20:46:32.001Z,4.50
2018-04-01T20:49:00.818Z,4.50
2018-04-01T20:51:29.635Z,4.80
2018-04-01T20:53:58.669Z,4.60
2018-04-01T20:56:27.472Z,4.70
2018-04-01T20:58:56.275Z,4.70
2018-04-01T21:01:25.872Z,5.00
2018-04-01T21:03:55.442Z,5.00
2018-04-01T21:06:25.979Z,4.80
2018-04-01T21:08:54.788Z,4.80
2018-04-01T21:11:24.392Z,4.80
2018-04-01T21:13:53.990Z,4.90
2018-04-01T21:16:22.798Z,4.90
2018-04-01T21:18:51.636Z,4.90
2018-04-01T21:21:20.455Z,4.80
2018-04-01T21:23:49.959Z,4.90
2018-04-01T21:26:18.776Z,4.90
2018-04-01T21:28:47.589Z,4.90
2018-04-01T21:31:16.419Z,4.90
2018-04-01T21:33:45.219Z,4.80
2018-04-01T21:36:14.019Z,4.90
2018-04-01T21:38:42.826Z,4.80
2018-04-01T21:41:12.328Z,4.80
2018-04-01T21:43:41.210Z,4.90
2018-04-01T21:46:10.018Z,4.90
2018-04-01T21:48:38.820Z,4.90
2018-04-01T21:51:08.382Z,4.80
2018-04-01T21:53:37.187Z,4.80
2018-04-01T21:56:06.318Z,4.70
2018-04-01T21:58:35.889Z,4.60
2018-04-01T22:01:04.120Z,4.60
2018-04-01T22:03:32.906Z,4.70
2018-04-01T22:06:01.699Z,4.70
2018-04-01T22:08:30.488Z,4.50
2018-04-01T22:10:59.286Z,4.50
2018-04-01T22:13:28.083Z,4.70
2018-04-01T22:15:56.875Z,4.60
2018-04-01T22:18:25.671Z,4.60
2018-04-01T22:20:55.163Z,4.60
2018-04-01T22:23:24.687Z,4.60
2018-04-01T22:25:54.039Z,4.60
2018-04-01T22:28:23.598Z,4.60
2018-04-01T22:30:52.394Z,4.60
2018-04-01T22:33:21.200Z,4.70
2018-04-01T22:35:49.999Z,4.50
2018-04-01T22:38:18.803Z,4.50
2018-04-01T22:40:48.671Z,4.80
2018-04-01T22:43:17.472Z,4.80
2018-04-01T22:45:47.057Z,4.40
2018-04-01T22:48:15.851Z,4.40
2018-04-01T22:50:44.655Z,4.50
2018-04-01T22:53:13.260Z,4.60
2018-04-01T22:55:42.076Z,4.50
2018-04-01T22:58:11.633Z,4.40
2018-04-01T23:00:40.435Z,4.40
2018-04-01T23:03:09.263Z,4.60
2018-04-01T23:05:38.818Z,4.50
2018-04-01T23:08:07.626Z,4.50
2018-04-01T23:10:36.434Z,4.40
2018-04-01T23:13:05.992Z,4.50
2018-04-01T23:15:34.793Z,4.50
2018-04-01T23:18:03.604Z,4.50
2018-04-01T23:20:32.070Z,4.40
2018-04-01T23:23:00.643Z,4.50
2018-04-01T23:25:29.431Z,4.50
2018-04-01T23:27:58.227Z,4.40
2018-04-01T23:30:27.028Z,4.40
2018-04-01T23:32:55.829Z,4.40
2018-04-01T23:35:24.615Z,4.60
2018-04-01T23:37:53.419Z,4.70
2018-04-01T23:40:22.998Z,4.50
2018-04-01T23:42:51.813Z,4.60
2018-04-01T23:45:20.607Z,4.60
2018-04-01T23:47:49.174Z,4.60
2018-04-01T23:50:17.738Z,4.70
2018-04-01T23:52:46.537Z,4.70
2018-04-01T23:55:15.344Z,4.50
2018-04-01T23:57:44.150Z,4.50
